createdAt,value
2023-05-10T03:57:43.189Z,11.30
2023-05-10T04:00:46.580Z,11.25
2023-05-10T04:03:49.963Z,11.24
2023-05-10T04:06:52.753Z,11.24
2023-05-10T04:09:55.898Z,11.28
2023-05-10T04:12:59.025Z,11.32
2023-05-10T04:16:02.433Z,11.42
2023-05-10T04:19:05.113Z,11.49
2023-05-10T04:22:08.104Z,11.52
2023-05-10T04:25:10.821Z,11.54
2023-05-10T04:28:13.709Z,11.56
2023-05-10T04:31:16.335Z,11.63
2023-05-10T04:34:19.869Z,11.69
2023-05-10T04:37:24.029Z,11.56
2023-05-10T04:40:27.161Z,11.45
2023-05-10T04:43:29.862Z,11.44
2023-05-10T04:46:33.037Z,11.27
2023-05-10T04:49:35.752Z,11.27
2023-05-10T04:52:38.828Z,11.36
2023-05-10T04:55:41.658Z,11.40
2023-05-10T04:58:44.569Z,11.49
2023-05-10T05:01:47.307Z,11.62
2023-05-10T05:04:50.567Z,11.87
2023-05-10T05:07:53.258Z,12.08
2023-05-10T05:10:56.267Z,12.28
2023-05-10T05:14:00.270Z,12.35
2023-05-10T05:17:03.367Z,12.36
2023-05-10T05:20:06.811Z,12.44
2023-05-10T05:23:09.816Z,12.53
2023-05-10T05:26:12.789Z,12.38
2023-05-10T05:29:15.774Z,12.30
2023-05-10T05:32:18.457Z,12.31
2023-05-10T05:35:21.762Z,12.50
2023-05-10T05:38:24.730Z,12.55
2023-05-10T05:41:27.717Z,12.74
2023-05-10T05:44:30.409Z,12.79
2023-05-10T05:47:33.546Z,13.07
2023-05-10T05:50:36.515Z,13.27
2023-05-10T05:53:39.608Z,13.43
2023-05-10T05:56:42.356Z,13.31
2023-05-10T05:59:45.434Z,13.15
2023-05-10T06:02:48.277Z,12.98
2023-05-10T06:05:51.233Z,13.12
2023-05-10T06:08:53.805Z,13.50
2023-05-10T06:11:56.795Z,13.69
2023-05-10T06:14:59.494Z,13.75
2023-05-10T06:18:02.489Z,13.55
2023-05-10T06:21:05.286Z,13.54
2023-05-10T06:24:08.411Z,13.60
2023-05-10T06:27:11.182Z,13.63
2023-05-10T06:30:15.775Z,13.70
2023-05-10T06:33:18.574Z,14.03
2023-05-10T06:36:21.958Z,14.45
2023-05-10T06:39:24.685Z,14.29
2023-05-10T06:42:28.323Z,14.42
2023-05-10T06:45:31.309Z,14.73
2023-05-10T06:48:35.129Z,14.64
2023-05-10T06:51:37.873Z,14.75
2023-05-10T06:55:01.324Z,14.77
2023-05-10T06:58:04.333Z,14.99
2023-05-10T07:01:07.502Z,14.96
2023-05-10T07:04:10.426Z,14.46
2023-05-10T07:07:13.312Z,14.79
2023-05-10T07:10:16.034Z,15.00
2023-05-10T07:13:27.195Z,15.06
2023-05-10T07:16:29.892Z,15.06
2023-05-10T07:19:33.727Z,15.10
2023-05-10T07:22:36.490Z,15.14
2023-05-10T07:25:39.437Z,15.42
2023-05-10T07:28:42.403Z,15.25
2023-05-10T07:31:45.379Z,15.48
2023-05-10T07:34:48.139Z,16.23
2023-05-10T07:37:50.991Z,16.30
2023-05-10T07:40:53.569Z,16.54
2023-05-10T07:43:56.614Z,16.57
2023-05-10T07:46:59.218Z,16.44
2023-05-10T07:50:02.609Z,16.99
2023-05-10T07:53:05.696Z,17.29
2023-05-10T07:56:28.330Z,17.33
2023-05-10T07:59:31.032Z,16.97
2023-05-10T08:02:36.376Z,16.89
2023-05-10T08:05:41.931Z,16.87
2023-05-10T08:08:46.597Z,17.01
2023-05-10T08:11:52.350Z,16.65
2023-05-10T08:14:54.928Z,16.85
2023-05-10T08:17:58.046Z,16.90
2023-05-10T08:21:00.715Z,16.95
2023-05-10T08:24:03.844Z,16.78
2023-05-10T08:27:06.997Z,17.20
2023-05-10T08:30:10.464Z,17.70
2023-05-10T08:33:13.083Z,17.48
2023-05-10T08:36:20.728Z,17.43
2023-05-10T08:39:30.361Z,16.63
2023-05-10T08:42:38.771Z,16.57
2023-05-10T08:45:44.922Z,16.76
2023-05-10T08:48:49.103Z,17.35
2023-05-10T08:51:56.932Z,17.33
2023-05-10T08:55:02.064Z,17.43
2023-05-10T08:58:05.209Z,17.63
2023-05-10T09:01:08.849Z,17.64
2023-05-10T09:04:13.339Z,17.27
2023-05-10T09:07:17.011Z,17.42
2023-05-10T09:10:21.213Z,17.62
2023-05-10T09:13:25.766Z,18.07
2023-05-10T09:16:28.434Z,18.66
2023-05-10T09:19:31.397Z,18.85
2023-05-10T09:22:35.582Z,18.93
2023-05-10T09:25:39.803Z,18.14
2023-05-10T09:29:09.747Z,18.54
2023-05-10T09:32:13.790Z,18.99
2023-05-10T09:35:29.622Z,18.56
2023-05-10T09:38:54.551Z,18.65
2023-05-10T09:41:57.735Z,18.56
2023-05-10T09:45:07.977Z,18.72
2023-05-10T09:48:10.798Z,18.46
2023-05-10T09:51:23.727Z,18.96
2023-05-10T09:54:26.893Z,19.37
2023-05-10T09:57:30.134Z,19.28
2023-05-10T10:00:37.673Z,19.41
2023-05-10T10:03:44.391Z,19.62
2023-05-10T10:06:47.069Z,19.40
2023-05-10T10:09:51.631Z,19.26
2023-05-10T10:12:55.159Z,19.73
2023-05-10T10:15:58.354Z,20.00
2023-05-10T10:19:01.920Z,20.25
2023-05-10T10:22:07.571Z,20.40
2023-05-10T10:25:12.060Z,20.12
2023-05-10T10:28:23.081Z,20.03
2023-05-10T10:31:34.865Z,20.57
2023-05-10T10:34:41.608Z,21.01
2023-05-10T10:37:46.442Z,20.42
2023-05-10T10:40:51.880Z,20.81
2023-05-10T10:44:34.911Z,20.82
2023-05-10T10:47:38.455Z,19.65
2023-05-10T10:50:47.841Z,19.89
2023-05-10T10:53:50.848Z,19.34
2023-05-10T10:57:16.529Z,20.87
2023-05-10T11:00:22.772Z,20.70
2023-05-10T11:03:26.496Z,20.84
2023-05-10T11:06:37.161Z,22.47
2023-05-10T11:09:41.488Z,23.98
2023-05-10T11:13:04.159Z,24.08
2023-05-10T11:16:13.068Z,22.24
2023-05-10T11:19:17.543Z,20.86
2023-05-10T11:22:20.187Z,20.26
2023-05-10T11:25:29.896Z,21.57
2023-05-10T11:28:33.278Z,23.97
2023-05-10T11:31:36.611Z,25.01
2023-05-10T11:34:39.789Z,23.16
2023-05-10T11:37:44.761Z,21.57
2023-05-10T11:40:47.469Z,23.87
2023-05-10T11:43:52.699Z,26.45
2023-05-10T11:46:55.312Z,26.44
2023-05-10T11:49:59.002Z,24.20
2023-05-10T11:53:02.322Z,23.85
2023-05-10T11:56:10.587Z,22.72
2023-05-10T11:59:15.816Z,21.89
2023-05-10T12:02:18.813Z,21.08
2023-05-10T12:05:22.564Z,20.49
2023-05-10T12:08:27.691Z,19.91
2023-05-10T12:11:30.925Z,19.98
2023-05-10T12:14:36.150Z,20.15
2023-05-10T12:17:43.206Z,21.12
2023-05-10T12:20:46.262Z,20.94
2023-05-10T12:23:54.426Z,20.71
2023-05-10T12:26:57.101Z,20.42
2023-05-10T12:30:03.790Z,20.31
2023-05-10T12:33:11.147Z,20.61
2023-05-10T12:36:16.175Z,20.97
2023-05-10T12:39:18.996Z,21.35
2023-05-10T12:42:22.052Z,20.89
2023-05-10T12:45:24.676Z,21.13
2023-05-10T12:48:29.716Z,22.65
2023-05-10T12:51:32.472Z,22.18
2023-05-10T12:54:35.369Z,21.56
2023-05-10T12:57:37.916Z,20.75
2023-05-10T13:00:40.909Z,20.41
2023-05-10T13:03:44.302Z,20.38
2023-05-10T13:06:47.341Z,20.69
2023-05-10T13:09:49.979Z,20.91
2023-05-10T13:12:53.089Z,22.04
2023-05-10T13:15:55.711Z,22.69
2023-05-10T13:18:59.571Z,22.75
2023-05-10T13:22:02.420Z,21.49
2023-05-10T13:25:05.812Z,20.96
2023-05-10T13:28:08.513Z,22.97
2023-05-10T13:31:13.460Z,24.29
2023-05-10T13:34:16.126Z,25.53
2023-05-10T13:37:19.141Z,24.61
2023-05-10T13:40:21.744Z,24.20
2023-05-10T13:43:25.418Z,23.64
2023-05-10T13:46:28.441Z,23.83
2023-05-10T13:49:31.493Z,23.68
2023-05-10T13:52:34.203Z,24.02
2023-05-10T13:55:37.256Z,24.54
2023-05-10T13:58:39.789Z,22.70
2023-05-10T14:01:44.183Z,22.10
2023-05-10T14:04:47.822Z,22.77
2023-05-10T14:07:51.787Z,24.23
2023-05-10T14:10:57.260Z,24.27
2023-05-10T14:13:59.888Z,24.19
2023-05-10T14:17:02.926Z,23.58
2023-05-10T14:20:06.238Z,23.17
2023-05-10T14:23:11.722Z,22.26
2023-05-10T14:26:14.668Z,22.82
2023-05-10T14:29:17.511Z,22.63
2023-05-10T14:32:23.021Z,22.18
2023-05-10T14:35:26.090Z,22.26
2023-05-10T14:38:28.937Z,22.02
2023-05-10T14:41:31.993Z,21.36
2023-05-10T14:44:34.620Z,21.22
2023-05-10T14:47:37.699Z,21.21
2023-05-10T14:50:40.706Z,20.95
2023-05-10T14:53:46.378Z,20.69
2023-05-10T14:56:50.996Z,20.42
2023-05-10T14:59:53.909Z,20.04
2023-05-10T15:02:57.156Z,19.73
2023-05-10T15:06:00.599Z,19.59
2023-05-10T15:09:07.174Z,19.14
2023-05-10T15:12:10.171Z,19.08
2023-05-10T15:15:12.813Z,18.97
2023-05-10T15:18:15.883Z,19.00
2023-05-10T15:21:21.087Z,18.87
2023-05-10T15:24:24.047Z,18.89
2023-05-10T15:27:27.264Z,18.73
2023-05-10T15:30:30.211Z,18.61
2023-05-10T15:33:32.835Z,18.58
2023-05-10T15:36:35.761Z,18.30
2023-05-10T15:39:38.303Z,18.38
2023-05-10T15:42:41.223Z,18.39
2023-05-10T15:45:43.892Z,18.33
2023-05-10T15:48:46.726Z,18.19
2023-05-10T15:51:49.774Z,18.09
2023-05-10T15:54:56.032Z,18.06
